LPMR

Details ICAO LPMR
Name MONTE REAL
Region Portugal
Timezone Europe/Lisbon (UTC+0.0)
Plans Departing 18
Arriving 24
Stats Elevation 187 ft / 57 m (AMSL)
Location 39.831239° -8.887258°
Runways 1
Magnetic Variation 2.327° W
Sunrise 2017-12-18 07:53:05 UTC / 2017-12-18 07:53:05 Local
Sunset 2017-12-18 17:13:58 UTC / 2017-12-18 17:13:58 Local
Advertisement - Login to hide

Runways

ID Width Length Bearing (true) Bearing (mag) Surface Threshold Offset Overrun Length
01 148 ft / 45 m 9,833 ft / 2,997 m 1.73° 4.06° Concrete 886 ft / 270 m 0 ft / 0 m
19 148 ft / 45 m 9,833 ft / 2,997 m 181.73° 184.06° Concrete 863 ft / 263 m 0 ft / 0 m

Approach Navaids

Runway Type Ident Frequency Range Bearing (true) Bearing (mag) Slope Elevation
19 Localiser MR 110.30 MHz 18 nm / 33 km 181.74° 184.07° - 187 ft / 57 m (AMSL)
19 Glidescope MR 110.30 MHz 10 nm / 19 km 181.73° 184.06° 2.50° 187 ft / 57 m (AMSL)

Map

Weather


0- 5 10 15 20 25 30 35+ Temperature / ° C

Clouds and Precipitation
Forecast for 2017-12-18 06:00 UTC. Updated 2 hours ago

Ground ~20,000 ft ~40,000 ft Winds

METAR

LPMR 180500Z VRB02KT CAVOK 01/01 Q1033

TAF

Not found

Frequencies

Ground 119.72 MHz GND
Approach 121.70 MHz APP
Tower 122.10 MHz TWR
Approach 120.47 MHz APP
Warning: Do not use this data for real-world aviation or navigation. No guarantee of current accuracy is given.